createdAt,value
2019-05-25T00:00:54.273Z,2.50
2019-05-25T00:03:22.702Z,2.57
2019-05-25T00:05:51.165Z,2.50
2019-05-25T00:08:19.687Z,2.43
2019-05-25T00:10:48.199Z,2.50
2019-05-25T00:13:16.639Z,2.63
2019-05-25T00:15:45.112Z,2.37
2019-05-25T00:18:13.550Z,2.63
2019-05-25T00:20:42.001Z,2.40
2019-05-25T00:23:10.466Z,2.67
2019-05-25T00:25:39.199Z,2.10
2019-05-25T00:28:07.684Z,2.60
2019-05-25T00:30:36.490Z,2.00
2019-05-25T00:33:04.950Z,2.10
2019-05-25T00:35:33.452Z,1.80
2019-05-25T00:38:03.515Z,2.00
2019-05-25T00:40:31.967Z,2.00
2019-05-25T00:43:00.405Z,1.73
2019-05-25T00:45:28.862Z,2.00
2019-05-25T00:47:57.305Z,2.40
2019-05-25T00:50:25.777Z,2.30
2019-05-25T00:52:55.309Z,2.17
2019-05-25T00:55:23.774Z,2.53
2019-05-25T00:57:52.594Z,2.40
2019-05-25T01:00:21.394Z,2.00
2019-05-25T01:02:49.900Z,2.23
2019-05-25T01:05:18.354Z,2.30
2019-05-25T01:07:46.788Z,2.20
2019-05-25T01:10:15.571Z,2.03
2019-05-25T01:12:44.046Z,2.50
2019-05-25T01:15:13.532Z,2.30
2019-05-25T01:17:41.964Z,2.73
2019-05-25T01:20:11.264Z,2.27
2019-05-25T01:22:39.990Z,2.27
2019-05-25T01:25:08.966Z,2.07
2019-05-25T01:27:37.560Z,2.57
2019-05-25T01:30:10.465Z,2.30
2019-05-25T01:32:38.916Z,2.30
2019-05-25T01:35:07.522Z,2.27
2019-05-25T01:37:35.986Z,2.30
2019-05-25T01:40:06.159Z,2.87
2019-05-25T01:42:34.592Z,2.40
2019-05-25T01:45:03.520Z,2.70
2019-05-25T01:47:31.982Z,2.13
2019-05-25T01:50:00.440Z,2.50
2019-05-25T01:52:28.890Z,2.40
2019-05-25T01:55:00.258Z,2.53
2019-05-25T01:57:27.514Z,2.53
2019-05-25T01:59:55.967Z,2.40
2019-05-25T02:02:24.415Z,2.50
2019-05-25T02:04:52.864Z,2.23
2019-05-25T02:07:21.313Z,2.37
2019-05-25T02:09:49.751Z,2.13
2019-05-25T02:12:18.271Z,2.67
2019-05-25T02:14:46.709Z,2.50
2019-05-25T02:17:15.142Z,2.50
2019-05-25T02:19:43.628Z,2.57
2019-05-25T02:22:12.101Z,2.50
2019-05-25T02:24:40.505Z,2.43
2019-05-25T02:27:08.959Z,2.87
2019-05-25T02:29:37.390Z,2.83
2019-05-25T02:32:05.920Z,2.47
2019-05-25T02:34:34.370Z,2.40
2019-05-25T02:37:02.820Z,3.43
2019-05-25T02:39:31.293Z,2.47
2019-05-25T02:41:59.719Z,2.27
2019-05-25T02:44:28.318Z,2.50
2019-05-25T02:46:56.789Z,2.50
2019-05-25T02:49:25.214Z,2.60
2019-05-25T02:51:53.645Z,3.03
2019-05-25T02:54:22.109Z,3.10
2019-05-25T02:56:50.595Z,2.70
2019-05-25T02:59:19.070Z,2.50
2019-05-25T03:01:47.533Z,2.43
2019-05-25T03:04:15.977Z,2.40
2019-05-25T03:06:44.428Z,2.43
2019-05-25T03:09:13.703Z,2.57
2019-05-25T03:11:42.679Z,2.40
2019-05-25T03:14:11.143Z,2.60
2019-05-25T03:16:39.619Z,2.30
2019-05-25T03:19:08.081Z,2.37
2019-05-25T03:21:36.542Z,2.60
2019-05-25T03:24:04.977Z,2.70
2019-05-25T03:26:33.439Z,2.53
2019-05-25T03:29:01.878Z,2.70
2019-05-25T03:31:30.343Z,2.63
2019-05-25T03:33:58.810Z,2.90
2019-05-25T03:36:27.260Z,2.80
2019-05-25T03:38:55.699Z,3.23
2019-05-25T03:41:24.156Z,2.90
2019-05-25T03:43:52.583Z,2.90
2019-05-25T03:46:21.023Z,2.77
2019-05-25T03:48:49.485Z,2.30
2019-05-25T03:51:17.925Z,2.33
2019-05-25T03:53:46.377Z,2.67
2019-05-25T03:56:14.817Z,3.10
2019-05-25T03:58:43.277Z,3.40
2019-05-25T04:01:11.735Z,2.67
2019-05-25T04:03:40.187Z,2.83
2019-05-25T04:06:08.627Z,3.03
2019-05-25T04:08:37.091Z,2.97
2019-05-25T04:11:05.656Z,2.50
2019-05-25T04:13:34.134Z,2.37
2019-05-25T04:16:02.572Z,3.07
2019-05-25T04:18:31.587Z,3.00
2019-05-25T04:21:00.086Z,2.63
2019-05-25T04:23:28.546Z,3.00
2019-05-25T04:25:57.016Z,2.43
2019-05-25T04:28:25.526Z,2.87
2019-05-25T04:30:53.990Z,2.40
2019-05-25T04:33:22.428Z,2.63
2019-05-25T04:35:50.949Z,2.27
2019-05-25T04:38:19.408Z,3.00
2019-05-25T04:40:47.886Z,3.03
2019-05-25T04:43:16.309Z,2.53
2019-05-25T04:45:44.760Z,2.50
2019-05-25T04:48:13.223Z,2.70
2019-05-25T04:50:41.680Z,2.37
2019-05-25T04:53:10.119Z,2.13
2019-05-25T04:55:38.594Z,2.57
2019-05-25T04:58:07.075Z,2.27
2019-05-25T05:00:35.558Z,2.70
2019-05-25T05:03:04.315Z,2.47
2019-05-25T05:05:32.729Z,2.00
2019-05-25T05:08:01.178Z,2.60
2019-05-25T05:10:29.640Z,2.10
2019-05-25T05:12:58.152Z,2.10
2019-05-25T05:15:26.611Z,2.00
2019-05-25T05:17:55.569Z,1.93
2019-05-25T05:20:23.993Z,2.27
2019-05-25T05:22:52.448Z,2.13
2019-05-25T05:25:20.882Z,2.03
2019-05-25T05:27:49.363Z,2.90
2019-05-25T05:30:20.860Z,2.07
2019-05-25T05:32:49.292Z,2.20
2019-05-25T05:35:17.798Z,2.60
2019-05-25T05:37:46.986Z,2.60
2019-05-25T05:40:15.683Z,2.33
2019-05-25T05:42:46.994Z,2.30
2019-05-25T05:45:15.697Z,2.67
2019-05-25T05:47:46.874Z,2.10
2019-05-25T05:50:15.766Z,2.40
2019-05-25T05:52:45.938Z,2.80
2019-05-25T05:55:17.411Z,2.60
2019-05-25T05:57:46.094Z,2.50
2019-05-25T06:00:14.764Z,2.53
2019-05-25T06:02:43.215Z,2.10
2019-05-25T06:05:11.823Z,2.53
2019-05-25T06:07:40.246Z,2.67
2019-05-25T06:10:10.498Z,2.53
2019-05-25T06:12:38.933Z,3.07
2019-05-25T06:15:07.786Z,2.40
2019-05-25T06:17:36.280Z,2.90
2019-05-25T06:20:06.665Z,3.00
2019-05-25T06:22:35.156Z,2.40
2019-05-25T06:25:04.250Z,2.50
2019-05-25T06:27:32.716Z,2.00
2019-05-25T06:30:01.179Z,2.47
2019-05-25T06:32:29.605Z,2.90
2019-05-25T06:34:58.056Z,3.23
2019-05-25T06:37:26.548Z,2.07
2019-05-25T06:39:55.006Z,2.90
2019-05-25T06:42:26.284Z,2.33
2019-05-25T06:44:54.745Z,1.90
2019-05-25T06:47:23.185Z,2.57
2019-05-25T06:49:51.671Z,1.60
2019-05-25T06:52:20.134Z,2.50
2019-05-25T06:54:48.607Z,2.23
2019-05-25T06:57:17.071Z,2.37
2019-05-25T06:59:45.526Z,2.00
2019-05-25T07:02:14.014Z,2.53
2019-05-25T07:04:42.464Z,2.60
2019-05-25T07:07:10.920Z,2.40
2019-05-25T07:09:39.384Z,2.30
2019-05-25T07:12:07.896Z,2.53
2019-05-25T07:14:36.328Z,2.37
2019-05-25T07:17:04.875Z,3.50
2019-05-25T07:19:33.315Z,2.77
2019-05-25T07:22:01.764Z,2.63
2019-05-25T07:24:30.226Z,2.67
2019-05-25T07:26:58.654Z,2.30
2019-05-25T07:29:27.093Z,2.50
2019-05-25T07:31:55.615Z,2.67
2019-05-25T07:34:24.097Z,2.70
2019-05-25T07:36:52.523Z,2.67
2019-05-25T07:39:20.988Z,2.87
2019-05-25T07:41:49.432Z,2.40
2019-05-25T07:44:17.887Z,2.63
2019-05-25T07:46:46.408Z,2.67
2019-05-25T07:49:14.859Z,3.13
2019-05-25T07:51:43.329Z,2.90
2019-05-25T07:54:11.816Z,2.80
2019-05-25T07:56:40.258Z,2.97
2019-05-25T07:59:08.713Z,3.57
2019-05-25T08:01:37.154Z,3.57
2019-05-25T08:04:05.611Z,2.93
2019-05-25T08:06:34.132Z,3.30
2019-05-25T08:09:02.718Z,2.97
2019-05-25T08:11:31.184Z,3.30
2019-05-25T08:13:59.652Z,3.10
2019-05-25T08:16:28.528Z,3.63
2019-05-25T08:18:56.989Z,3.30
2019-05-25T08:21:25.467Z,3.57
2019-05-25T08:23:54.246Z,3.67
2019-05-25T08:26:22.829Z,3.23
2019-05-25T08:28:51.263Z,3.43
2019-05-25T08:31:19.709Z,3.53
2019-05-25T08:33:48.197Z,4.10
2019-05-25T08:36:16.681Z,3.30
2019-05-25T08:38:45.138Z,3.17
2019-05-25T08:41:13.595Z,3.33
2019-05-25T08:43:42.081Z,3.40
2019-05-25T08:46:10.574Z,3.70
2019-05-25T08:48:39.103Z,2.97
2019-05-25T08:51:07.594Z,3.20
2019-05-25T08:53:41.107Z,3.80
2019-05-25T08:56:06.260Z,3.00
2019-05-25T08:58:47.465Z,3.33
2019-05-25T09:01:04.940Z,4.07
2019-05-25T09:03:33.375Z,3.77
2019-05-25T09:06:01.843Z,3.83
2019-05-25T09:08:30.295Z,3.57
2019-05-25T09:10:58.882Z,4.00
2019-05-25T09:13:27.410Z,3.70
2019-05-25T09:15:55.903Z,4.47
2019-05-25T09:18:24.368Z,3.93
2019-05-25T09:20:52.817Z,3.37
2019-05-25T09:23:21.280Z,3.63
2019-05-25T09:25:49.802Z,3.40
2019-05-25T09:28:18.310Z,3.23
2019-05-25T09:30:48.306Z,3.57
2019-05-25T09:33:16.757Z,3.33
2019-05-25T09:35:45.236Z,3.03
2019-05-25T09:38:13.690Z,3.10
2019-05-25T09:40:42.162Z,2.80
2019-05-25T09:43:10.589Z,4.00
2019-05-25T09:45:39.056Z,3.57
2019-05-25T09:48:07.526Z,9.37
2019-05-25T09:50:35.970Z,3.07
2019-05-25T09:53:04.522Z,2.50
2019-05-25T09:55:32.954Z,3.10
2019-05-25T09:58:01.416Z,3.23
2019-05-25T10:00:30.012Z,2.67
2019-05-25T10:02:58.460Z,2.57
2019-05-25T10:05:26.920Z,3.47
2019-05-25T10:07:55.386Z,2.50
2019-05-25T10:10:24.063Z,3.07
2019-05-25T10:12:52.539Z,4.60
2019-05-25T10:15:21.012Z,3.20
2019-05-25T10:17:49.486Z,3.30
2019-05-25T10:20:18.248Z,2.70
2019-05-25T10:22:46.679Z,3.17
2019-05-25T10:25:15.988Z,2.83
2019-05-25T10:27:44.442Z,3.23
2019-05-25T10:30:13.105Z,3.27
2019-05-25T10:32:41.626Z,2.93
2019-05-25T10:35:10.260Z,3.30
2019-05-25T10:37:38.765Z,2.83
2019-05-25T10:40:09.197Z,2.83
2019-05-25T10:42:37.626Z,3.20
2019-05-25T10:45:07.934Z,3.10
2019-05-25T10:47:36.402Z,3.73
2019-05-25T10:50:08.903Z,2.87
2019-05-25T10:52:37.375Z,2.83
2019-05-25T10:55:10.302Z,2.80
2019-05-25T10:57:39.322Z,3.10
2019-05-25T11:00:09.414Z,2.87
2019-05-25T11:02:37.927Z,3.07
2019-05-25T11:05:10.001Z,3.40
2019-05-25T11:07:38.523Z,3.00
2019-05-25T11:10:10.274Z,3.40
2019-05-25T11:12:38.717Z,3.27
2019-05-25T11:15:08.739Z,3.40
2019-05-25T11:17:37.249Z,3.70
2019-05-25T11:20:10.769Z,3.37
2019-05-25T11:22:39.233Z,3.10
2019-05-25T11:25:08.986Z,3.50
2019-05-25T11:27:37.440Z,3.27
2019-05-25T11:30:09.574Z,3.00
2019-05-25T11:32:37.136Z,3.40
2019-05-25T11:35:07.260Z,2.70
2019-05-25T11:37:35.782Z,3.57
2019-05-25T11:40:06.820Z,5.40
2019-05-25T11:42:35.276Z,2.70
2019-05-25T11:45:05.114Z,2.27
2019-05-25T11:47:33.590Z,2.90
2019-05-25T11:50:02.076Z,2.80
2019-05-25T11:52:30.610Z,2.33
2019-05-25T11:54:59.061Z,3.07
2019-05-25T11:57:27.539Z,2.60
2019-05-25T11:59:56.008Z,2.83
2019-05-25T12:02:24.458Z,2.40
2019-05-25T12:04:52.941Z,2.60
2019-05-25T12:07:21.411Z,2.60
2019-05-25T12:09:49.900Z,2.30
2019-05-25T12:12:18.380Z,2.23
2019-05-25T12:14:46.872Z,2.83
2019-05-25T12:17:15.323Z,3.23
2019-05-25T12:19:43.785Z,2.47
2019-05-25T12:22:12.226Z,2.60
2019-05-25T12:24:40.697Z,2.60
2019-05-25T12:27:09.165Z,3.00
2019-05-25T12:29:37.642Z,2.80
2019-05-25T12:32:06.092Z,2.90
2019-05-25T12:34:34.547Z,2.70
2019-05-25T12:37:02.989Z,3.00
2019-05-25T12:39:31.460Z,4.37
2019-05-25T12:41:59.921Z,2.60
2019-05-25T12:44:28.408Z,2.47
2019-05-25T12:46:56.840Z,2.40
2019-05-25T12:49:25.322Z,2.40
2019-05-25T12:51:53.776Z,4.53
2019-05-25T12:54:22.214Z,2.90
2019-05-25T12:56:50.728Z,2.40
2019-05-25T12:59:22.103Z,2.70
2019-05-25T13:01:50.577Z,2.93
2019-05-25T13:04:19.944Z,2.77
2019-05-25T13:06:48.363Z,2.80
2019-05-25T13:09:16.836Z,3.20
2019-05-25T13:11:45.303Z,2.83
2019-05-25T13:14:14.996Z,2.70
2019-05-25T13:16:43.684Z,2.90
2019-05-25T13:19:12.168Z,2.93
2019-05-25T13:21:41.412Z,3.33
2019-05-25T13:24:09.948Z,2.80
2019-05-25T13:26:38.421Z,3.33
2019-05-25T13:29:06.853Z,3.67
2019-05-25T13:31:35.317Z,3.23
2019-05-25T13:34:03.930Z,2.77
2019-05-25T13:36:32.388Z,3.40
2019-05-25T13:39:00.862Z,2.80
2019-05-25T13:41:29.303Z,3.57
2019-05-25T13:43:57.767Z,5.20
2019-05-25T13:46:26.268Z,2.60
2019-05-25T13:48:54.732Z,3.53
2019-05-25T13:51:23.205Z,2.90
2019-05-25T13:53:51.670Z,3.37
2019-05-25T13:56:20.115Z,4.93
2019-05-25T13:58:48.646Z,4.13
2019-05-25T14:01:27.899Z,3.60
2019-05-25T14:03:47.285Z,4.13
2019-05-25T14:06:15.774Z,5.73
2019-05-25T14:08:44.238Z,6.60
2019-05-25T14:11:12.697Z,4.83
2019-05-25T14:13:41.176Z,4.73
2019-05-25T14:16:09.666Z,3.73
2019-05-25T14:18:38.124Z,3.43
2019-05-25T14:21:06.588Z,3.40
2019-05-25T14:23:35.415Z,3.70
2019-05-25T14:26:05.091Z,2.87
2019-05-25T14:28:33.583Z,3.73
2019-05-25T14:31:02.037Z,3.10
2019-05-25T14:33:30.488Z,2.70
2019-05-25T14:35:58.920Z,2.60
2019-05-25T14:38:27.381Z,3.10
2019-05-25T14:40:55.859Z,2.80
2019-05-25T14:43:24.333Z,4.03
2019-05-25T14:45:53.509Z,2.70
2019-05-25T14:48:22.123Z,2.67
2019-05-25T14:50:50.552Z,3.03
2019-05-25T14:53:19.012Z,3.43
2019-05-25T14:55:47.457Z,3.90
2019-05-25T14:58:15.923Z,3.47
2019-05-25T15:00:44.552Z,3.00
2019-05-25T15:03:13.023Z,2.50
2019-05-25T15:05:41.470Z,3.00
2019-05-25T15:08:09.971Z,3.20
2019-05-25T15:10:38.430Z,3.37
2019-05-25T15:13:06.889Z,5.83
2019-05-25T15:15:35.323Z,4.03
2019-05-25T15:18:03.766Z,2.87
2019-05-25T15:20:32.225Z,2.50
2019-05-25T15:23:00.711Z,3.03
2019-05-25T15:25:29.163Z,3.27
2019-05-25T15:27:57.618Z,2.90
2019-05-25T15:30:26.061Z,3.40
2019-05-25T15:32:54.504Z,2.30
2019-05-25T15:35:23.037Z,2.50
2019-05-25T15:37:51.494Z,3.80
2019-05-25T15:40:20.040Z,3.57
2019-05-25T15:42:48.582Z,4.77
2019-05-25T15:45:17.268Z,3.10
2019-05-25T15:47:45.718Z,2.37
2019-05-25T15:50:15.107Z,3.80
2019-05-25T15:52:43.646Z,5.43
2019-05-25T15:55:12.565Z,3.40
2019-05-25T15:57:40.998Z,3.80
2019-05-25T16:00:14.417Z,5.80
2019-05-25T16:02:42.904Z,2.90
2019-05-25T16:05:12.621Z,3.17
2019-05-25T16:07:44.105Z,3.10
2019-05-25T16:10:12.972Z,3.03
2019-05-25T16:12:41.426Z,3.43
2019-05-25T16:15:10.233Z,3.00
2019-05-25T16:17:39.349Z,3.40
2019-05-25T16:20:08.131Z,3.20
2019-05-25T16:22:36.599Z,2.87
2019-05-25T16:25:07.703Z,3.00
2019-05-25T16:27:36.195Z,3.30
2019-05-25T16:30:07.504Z,2.70
2019-05-25T16:33:07.185Z,2.53
2019-05-25T16:35:07.314Z,2.67
2019-05-25T16:37:36.125Z,2.73
2019-05-25T16:40:06.752Z,2.37
2019-05-25T16:42:35.224Z,2.80
2019-05-25T16:45:06.096Z,2.93
2019-05-25T16:47:34.628Z,3.27
2019-05-25T16:50:03.748Z,3.33
2019-05-25T16:52:32.198Z,2.90
2019-05-25T16:55:00.635Z,3.30
2019-05-25T16:57:29.096Z,3.70
2019-05-25T16:59:57.533Z,2.90
2019-05-25T17:02:25.992Z,2.40
2019-05-25T17:04:54.443Z,2.93
2019-05-25T17:07:22.898Z,2.40
2019-05-25T17:09:51.359Z,2.80
2019-05-25T17:12:19.922Z,3.00
2019-05-25T17:14:48.399Z,2.63
2019-05-25T17:17:17.606Z,2.83
2019-05-25T17:19:46.058Z,3.37
2019-05-25T17:22:14.534Z,3.43
2019-05-25T17:24:42.997Z,3.53
2019-05-25T17:27:11.422Z,3.47
2019-05-25T17:29:39.889Z,3.50
2019-05-25T17:32:08.342Z,3.37
2019-05-25T17:34:36.779Z,3.53
2019-05-25T17:37:05.243Z,3.00
2019-05-25T17:39:33.714Z,2.27
2019-05-25T17:42:02.241Z,2.47
2019-05-25T17:44:30.673Z,2.67
2019-05-25T17:46:59.114Z,2.80
2019-05-25T17:49:27.604Z,3.13
2019-05-25T17:51:56.031Z,2.50
2019-05-25T17:54:24.519Z,2.70
2019-05-25T17:56:52.969Z,2.57
2019-05-25T17:59:21.398Z,3.00
2019-05-25T18:01:49.859Z,2.77
2019-05-25T18:04:18.310Z,2.90
2019-05-25T18:06:46.747Z,3.37
2019-05-25T18:09:15.203Z,2.60
2019-05-25T18:11:43.630Z,2.97
2019-05-25T18:14:12.111Z,2.43
2019-05-25T18:16:40.581Z,3.80
2019-05-25T18:19:09.018Z,2.80
2019-05-25T18:21:37.481Z,3.03
2019-05-25T18:24:06.000Z,2.97
2019-05-25T18:26:34.493Z,3.07
2019-05-25T18:29:02.951Z,2.43
2019-05-25T18:31:31.438Z,2.80
2019-05-25T18:33:59.884Z,3.20
2019-05-25T18:36:28.349Z,3.23
2019-05-25T18:38:56.814Z,2.73
2019-05-25T18:41:25.247Z,4.63
2019-05-25T18:43:53.715Z,2.90
2019-05-25T18:46:22.181Z,3.50
2019-05-25T18:48:50.632Z,2.63
2019-05-25T18:51:19.101Z,3.00
2019-05-25T18:53:47.544Z,3.20
2019-05-25T18:56:16.312Z,3.80
2019-05-25T18:58:44.811Z,3.43
2019-05-25T19:01:13.338Z,2.83
2019-05-25T19:03:41.806Z,2.73
2019-05-25T19:06:10.250Z,3.40
2019-05-25T19:08:38.733Z,3.30
2019-05-25T19:11:07.193Z,3.40
2019-05-25T19:13:35.694Z,3.40
2019-05-25T19:16:04.348Z,3.30
2019-05-25T19:18:32.788Z,3.50
2019-05-25T19:21:01.228Z,3.60
2019-05-25T19:23:29.701Z,3.67
2019-05-25T19:25:58.136Z,3.80
2019-05-25T19:28:26.578Z,3.73
2019-05-25T19:30:55.060Z,5.03
2019-05-25T19:33:23.504Z,5.80
2019-05-25T19:35:54.246Z,4.67
2019-05-25T19:38:22.152Z,4.30
2019-05-25T19:40:50.605Z,4.40
2019-05-25T19:43:19.088Z,3.93
2019-05-25T19:45:47.600Z,11.37
2019-05-25T19:48:15.993Z,4.67
2019-05-25T19:50:44.460Z,4.60
2019-05-25T19:53:12.929Z,6.23
2019-05-25T19:55:41.434Z,4.33
2019-05-25T19:58:09.921Z,4.03
2019-05-25T20:00:38.389Z,5.53
2019-05-25T20:03:06.927Z,5.53
2019-05-25T20:05:35.366Z,4.43
2019-05-25T20:08:03.936Z,5.20
2019-05-25T20:10:32.418Z,4.90
2019-05-25T20:13:00.906Z,4.03
2019-05-25T20:15:29.365Z,4.77
2019-05-25T20:17:57.854Z,3.97
2019-05-25T20:20:26.308Z,5.27
2019-05-25T20:22:54.750Z,4.30
2019-05-25T20:25:23.298Z,3.90
2019-05-25T20:27:51.785Z,4.53
2019-05-25T20:30:20.265Z,4.50
2019-05-25T20:32:48.734Z,5.00
2019-05-25T20:35:31.702Z,5.40
2019-05-25T20:37:47.390Z,5.63
2019-05-25T20:40:16.466Z,10.67
2019-05-25T20:42:45.167Z,5.27
2019-05-25T20:45:14.188Z,4.60
2019-05-25T20:47:42.661Z,4.80
2019-05-25T20:50:13.287Z,4.80
2019-05-25T20:52:41.709Z,5.60
2019-05-25T20:55:11.305Z,5.27
2019-05-25T20:57:39.794Z,5.30
2019-05-25T21:00:08.627Z,5.07
2019-05-25T21:02:37.108Z,4.13
2019-05-25T21:05:08.225Z,5.33
2019-05-25T21:07:36.683Z,5.03
2019-05-25T21:10:07.005Z,5.13
2019-05-25T21:12:35.465Z,4.73
2019-05-25T21:15:07.506Z,4.20
2019-05-25T21:17:35.972Z,4.43
2019-05-25T21:20:06.181Z,4.00
2019-05-25T21:22:34.644Z,5.83
2019-05-25T21:25:05.878Z,4.10
2019-05-25T21:27:34.058Z,3.63
2019-05-25T21:30:02.518Z,7.70
2019-05-25T21:32:30.970Z,4.27
2019-05-25T21:34:59.445Z,4.13
2019-05-25T21:37:27.871Z,5.20
2019-05-25T21:39:56.336Z,4.20
2019-05-25T21:42:24.780Z,4.07
2019-05-25T21:44:53.226Z,7.43
2019-05-25T21:47:21.716Z,4.13
2019-05-25T21:49:50.164Z,4.60
2019-05-25T21:52:18.644Z,5.47
2019-05-25T21:54:47.129Z,23.70
2019-05-25T21:57:15.577Z,24.17
2019-05-25T21:59:44.032Z,4.97
2019-05-25T22:02:12.504Z,3.93
2019-05-25T22:04:40.988Z,4.17
2019-05-25T22:07:09.436Z,4.43
2019-05-25T22:09:37.895Z,4.20
2019-05-25T22:12:06.403Z,4.60
2019-05-25T22:14:34.845Z,4.23
2019-05-25T22:17:03.331Z,5.40
2019-05-25T22:19:31.796Z,7.60
2019-05-25T22:22:00.240Z,4.80
2019-05-25T22:24:28.682Z,4.67
2019-05-25T22:26:57.152Z,4.33
2019-05-25T22:29:25.601Z,4.87
2019-05-25T22:31:54.102Z,4.57
2019-05-25T22:34:22.547Z,4.37
2019-05-25T22:36:50.983Z,4.73
2019-05-25T22:39:19.464Z,4.70
2019-05-25T22:41:47.923Z,4.10
2019-05-25T22:44:16.415Z,4.67
2019-05-25T22:46:44.855Z,4.87
2019-05-25T22:49:13.288Z,4.97
2019-05-25T22:51:41.741Z,4.60
2019-05-25T22:54:10.179Z,5.40
2019-05-25T22:56:38.652Z,4.70
2019-05-25T22:59:07.085Z,4.67
2019-05-25T23:01:35.520Z,4.77
2019-05-25T23:04:04.135Z,5.50
2019-05-25T23:06:32.549Z,5.40
2019-05-25T23:09:01.013Z,5.00
2019-05-25T23:11:29.478Z,6.00
2019-05-25T23:13:57.927Z,5.40
2019-05-25T23:16:26.381Z,5.80
2019-05-25T23:18:54.835Z,4.90
2019-05-25T23:21:23.347Z,5.07
2019-05-25T23:23:51.815Z,5.37
2019-05-25T23:26:20.275Z,5.00
2019-05-25T23:28:48.752Z,5.33
2019-05-25T23:31:17.222Z,5.13
2019-05-25T23:33:45.639Z,5.03
2019-05-25T23:36:14.117Z,4.63
2019-05-25T23:38:42.563Z,4.47
2019-05-25T23:41:11.004Z,4.90
2019-05-25T23:43:39.484Z,4.30
2019-05-25T23:46:07.945Z,4.47
2019-05-25T23:48:36.397Z,4.40
2019-05-25T23:51:04.853Z,4.43
2019-05-25T23:53:33.313Z,4.27
2019-05-25T23:56:01.781Z,4.60
2019-05-25T23:58:30.230Z,4.77
